createdAt,value
2024-01-24T00:00:21.152Z,96345.00
2024-01-24T00:01:21.207Z,96340.00
2024-01-24T00:02:21.241Z,96343.00
2024-01-24T00:03:21.339Z,96349.00
2024-01-24T00:04:21.506Z,96348.00
2024-01-24T00:05:21.377Z,96347.00
2024-01-24T00:06:21.434Z,96347.00
2024-01-24T00:07:21.445Z,96341.00
2024-01-24T00:08:21.486Z,96342.00
2024-01-24T00:09:21.565Z,96338.00
2024-01-24T00:10:21.581Z,96339.00
2024-01-24T00:11:21.602Z,96337.00
2024-01-24T00:12:21.699Z,96336.00
2024-01-24T00:13:21.748Z,96336.00
2024-01-24T00:14:21.759Z,96336.00
2024-01-24T00:15:21.846Z,96337.00
2024-01-24T00:16:21.850Z,96335.00
2024-01-24T00:17:21.945Z,96336.00
2024-01-24T00:18:22.156Z,96335.00
2024-01-24T00:19:22.181Z,96337.00
2024-01-24T00:20:22.029Z,96339.00
2024-01-24T00:21:22.092Z,96332.00
2024-01-24T00:22:22.152Z,96320.00
2024-01-24T00:23:22.152Z,96316.00
2024-01-24T00:24:22.278Z,96321.00
2024-01-24T00:25:22.323Z,96327.00
2024-01-24T00:26:22.372Z,96326.00
2024-01-24T00:27:22.400Z,96324.00
2024-01-24T00:28:22.444Z,96318.00
2024-01-24T00:29:22.483Z,96311.00
2024-01-24T00:30:22.562Z,96305.00
2024-01-24T00:31:22.624Z,96299.00
2024-01-24T00:32:22.678Z,96299.00
2024-01-24T00:33:22.731Z,96300.00
2024-01-24T00:34:22.906Z,96300.00
2024-01-24T00:35:22.900Z,96298.00
2024-01-24T00:36:22.956Z,96302.00
2024-01-24T00:37:23.017Z,96307.00
2024-01-24T00:38:22.981Z,96304.00
2024-01-24T00:39:23.065Z,96303.00
2024-01-24T00:40:23.059Z,96301.00
2024-01-24T00:41:23.133Z,96299.00
2024-01-24T00:42:23.233Z,96297.00
2024-01-24T00:43:23.289Z,96297.00
2024-01-24T00:44:23.273Z,96304.00
2024-01-24T00:45:23.345Z,96306.00
2024-01-24T00:46:23.383Z,96306.00
2024-01-24T00:47:23.459Z,96305.00
2024-01-24T00:48:23.536Z,96309.00
2024-01-24T00:49:23.898Z,96311.00
2024-01-24T00:50:23.583Z,96304.00
2024-01-24T00:51:23.652Z,96298.00
2024-01-24T00:52:23.671Z,96299.00
2024-01-24T00:53:23.706Z,96301.00
2024-01-24T00:54:23.782Z,96301.00
2024-01-24T00:55:23.802Z,96299.00
2024-01-24T00:56:23.849Z,96297.00
2024-01-24T00:57:23.953Z,96295.00
2024-01-24T00:58:23.910Z,96297.00
2024-01-24T00:59:23.960Z,96302.00
2024-01-24T01:00:24.016Z,96298.00
2024-01-24T01:01:24.089Z,96296.00
2024-01-24T01:02:24.096Z,96298.00
2024-01-24T01:03:24.184Z,96304.00
2024-01-24T01:04:24.234Z,96303.00
2024-01-24T01:05:24.213Z,96302.00
2024-01-24T01:06:24.281Z,96302.00
2024-01-24T01:07:24.305Z,96302.00
2024-01-24T01:08:24.318Z,96301.00
2024-01-24T01:09:24.394Z,96298.00
2024-01-24T01:10:24.387Z,96301.00
2024-01-24T01:11:24.445Z,96305.00
2024-01-24T01:12:24.509Z,96304.00
2024-01-24T01:13:24.519Z,96299.00
2024-01-24T01:14:24.541Z,96295.00
2024-01-24T01:15:24.654Z,96293.00
2024-01-24T01:16:24.636Z,96291.00
2024-01-24T01:17:24.744Z,96293.00
2024-01-24T01:18:24.817Z,96296.00
2024-01-24T01:19:24.840Z,96299.00
2024-01-24T01:20:24.825Z,96302.00
2024-01-24T01:21:24.869Z,96302.00
2024-01-24T01:22:24.990Z,96297.00
2024-01-24T01:23:24.907Z,96296.00
2024-01-24T01:24:24.969Z,96300.00
2024-01-24T01:25:24.985Z,96302.00
2024-01-24T01:26:25.046Z,96300.00
2024-01-24T01:27:25.062Z,96297.00
2024-01-24T01:28:25.067Z,96295.00
2024-01-24T01:29:25.107Z,96291.00
2024-01-24T01:30:25.182Z,96286.00
2024-01-24T01:31:25.142Z,96279.00
2024-01-24T01:32:25.247Z,96272.00
2024-01-24T01:33:25.281Z,96267.00
2024-01-24T01:34:25.269Z,96261.00
2024-01-24T01:35:25.245Z,96258.00
2024-01-24T01:36:25.289Z,96253.00
2024-01-24T01:37:25.314Z,96251.00
2024-01-24T01:38:25.288Z,96250.00
2024-01-24T01:39:25.347Z,96253.00
2024-01-24T01:40:25.352Z,96250.00
2024-01-24T01:41:25.376Z,96251.00
2024-01-24T01:42:25.435Z,96249.00
2024-01-24T01:43:25.485Z,96247.00
2024-01-24T01:44:25.457Z,96246.00
2024-01-24T01:45:25.499Z,96248.00
2024-01-24T01:46:25.540Z,96245.00
2024-01-24T01:47:25.598Z,96243.00
2024-01-24T01:48:25.702Z,96239.00
2024-01-24T01:49:25.672Z,96236.00
2024-01-24T01:50:25.676Z,96237.00
2024-01-24T01:51:25.700Z,96239.00
2024-01-24T01:52:25.733Z,96236.00
2024-01-24T01:53:25.712Z,96230.00
2024-01-24T01:54:25.769Z,96222.00
2024-01-24T01:55:25.813Z,96219.00
2024-01-24T01:56:25.812Z,96216.00
2024-01-24T01:57:25.821Z,96212.00
2024-01-24T01:58:25.849Z,96207.00
2024-01-24T01:59:25.865Z,96199.00
2024-01-24T02:00:25.899Z,96195.00
2024-01-24T02:01:25.947Z,96196.00
2024-01-24T02:02:25.931Z,96198.00
2024-01-24T02:03:26.014Z,96204.00
2024-01-24T02:04:26.025Z,96202.00
2024-01-24T02:05:26.048Z,96201.00
2024-01-24T02:06:26.169Z,96201.00
2024-01-24T02:07:26.100Z,96200.00
2024-01-24T02:08:26.092Z,96205.00
2024-01-24T02:09:26.153Z,96213.00
2024-01-24T02:10:26.122Z,96210.00
2024-01-24T02:11:26.152Z,96205.00
2024-01-24T02:12:26.221Z,96204.00
2024-01-24T02:13:26.188Z,96201.00
2024-01-24T02:14:26.200Z,96200.00
2024-01-24T02:15:26.256Z,96195.00
2024-01-24T02:16:26.272Z,96190.00
2024-01-24T02:17:26.326Z,96188.00
2024-01-24T02:18:26.327Z,96180.00
2024-01-24T02:19:26.352Z,96178.00
2024-01-24T02:20:26.354Z,96175.00
2024-01-24T02:21:26.357Z,96185.00
2024-01-24T02:22:26.419Z,96188.00
2024-01-24T02:23:26.400Z,96180.00
2024-01-24T02:24:26.444Z,96172.00
2024-01-24T02:25:26.486Z,96170.00
2024-01-24T02:26:26.511Z,96167.00
2024-01-24T02:27:26.560Z,96160.00
2024-01-24T02:28:26.550Z,96156.00
2024-01-24T02:29:26.593Z,96154.00
2024-01-24T02:30:26.628Z,96155.00
2024-01-24T02:31:26.629Z,96152.00
2024-01-24T02:32:26.703Z,96149.00
2024-01-24T02:33:26.790Z,96150.00
2024-01-24T02:34:26.856Z,96149.00
2024-01-24T02:35:26.718Z,96146.00
2024-01-24T02:36:26.801Z,96146.00
2024-01-24T02:37:26.759Z,96148.00
2024-01-24T02:38:26.812Z,96149.00
2024-01-24T02:39:26.855Z,96142.00
2024-01-24T02:40:26.883Z,96141.00
2024-01-24T02:41:26.915Z,96145.00
2024-01-24T02:42:26.919Z,96143.00
2024-01-24T02:43:26.953Z,96143.00
2024-01-24T02:44:26.960Z,96144.00
2024-01-24T02:45:27.056Z,96143.00
2024-01-24T02:46:27.018Z,96146.00
2024-01-24T02:47:27.091Z,96148.00
2024-01-24T02:48:27.116Z,96145.00
2024-01-24T02:49:27.177Z,96145.00
2024-01-24T02:50:27.102Z,96147.00
2024-01-24T02:51:27.176Z,96142.00
2024-01-24T02:52:27.138Z,96137.00
2024-01-24T02:53:27.153Z,96135.00
2024-01-24T02:54:27.238Z,96132.00
2024-01-24T02:55:27.230Z,96130.00
2024-01-24T02:56:27.264Z,96133.00
2024-01-24T02:57:27.338Z,96130.00
2024-01-24T02:58:27.324Z,96127.00
2024-01-24T02:59:27.324Z,96128.00
2024-01-24T03:00:27.417Z,96130.00
2024-01-24T03:01:27.466Z,96130.00
2024-01-24T03:02:27.456Z,96121.00
2024-01-24T03:03:27.494Z,96115.00
2024-01-24T03:04:27.550Z,96113.00
2024-01-24T03:05:27.521Z,96111.00
2024-01-24T03:06:27.734Z,96113.00
2024-01-24T03:07:27.640Z,96112.00
2024-01-24T03:08:27.627Z,96105.00
2024-01-24T03:09:27.700Z,96099.00
2024-01-24T03:10:27.652Z,96095.00
2024-01-24T03:11:27.672Z,96095.00
2024-01-24T03:12:27.837Z,96092.00
2024-01-24T03:13:27.756Z,96093.00
2024-01-24T03:14:27.820Z,96096.00
2024-01-24T03:15:27.877Z,96091.00
2024-01-24T03:16:27.835Z,96086.00
2024-01-24T03:17:27.916Z,96087.00
2024-01-24T03:18:27.982Z,96087.00
2024-01-24T03:19:28.050Z,96083.00
2024-01-24T03:20:27.999Z,96081.00
2024-01-24T03:21:28.080Z,96082.00
2024-01-24T03:22:28.107Z,96086.00
2024-01-24T03:23:28.145Z,96081.00
2024-01-24T03:24:28.200Z,96073.00
2024-01-24T03:25:28.196Z,96077.00
2024-01-24T03:26:28.239Z,96074.00
2024-01-24T03:27:28.299Z,96077.00
2024-01-24T03:28:28.287Z,96073.00
2024-01-24T03:29:29.266Z,96078.00
2024-01-24T03:30:28.300Z,96078.00
2024-01-24T03:31:28.301Z,96074.00
2024-01-24T03:32:28.382Z,96073.00
2024-01-24T03:33:28.420Z,96078.00
2024-01-24T03:34:28.475Z,96078.00
2024-01-24T03:35:28.469Z,96071.00
2024-01-24T03:36:28.552Z,96068.00
2024-01-24T03:37:28.583Z,96070.00
2024-01-24T03:38:28.614Z,96063.00
2024-01-24T03:39:28.721Z,96058.00
2024-01-24T03:40:28.708Z,96060.00
2024-01-24T03:41:28.723Z,96062.00
2024-01-24T03:42:28.797Z,96067.00
2024-01-24T03:43:28.860Z,96070.00
2024-01-24T03:44:28.872Z,96075.00
2024-01-24T03:45:28.981Z,96072.00
2024-01-24T03:46:29.023Z,96074.00
2024-01-24T03:47:29.108Z,96071.00
2024-01-24T03:48:29.167Z,96064.00
2024-01-24T03:49:29.331Z,96063.00
2024-01-24T03:50:29.163Z,96061.00
2024-01-24T03:51:29.253Z,96064.00
2024-01-24T03:52:29.292Z,96060.00
2024-01-24T03:53:29.291Z,96061.00
2024-01-24T03:54:29.351Z,96059.00
2024-01-24T03:55:29.392Z,96059.00
2024-01-24T03:56:29.493Z,96059.00
2024-01-24T03:57:29.469Z,96059.00
2024-01-24T03:58:29.498Z,96058.00
2024-01-24T03:59:29.534Z,96055.00
2024-01-24T04:00:29.608Z,96053.00
2024-01-24T04:01:29.671Z,96048.00
2024-01-24T04:02:29.707Z,96053.00
2024-01-24T04:03:29.808Z,96055.00
2024-01-24T04:04:29.880Z,96057.00
2024-01-24T04:05:29.810Z,96055.00
2024-01-24T04:06:30.013Z,96051.00
2024-01-24T04:07:29.967Z,96043.00
2024-01-24T04:08:29.994Z,96043.00
2024-01-24T04:09:30.019Z,96046.00
2024-01-24T04:10:30.091Z,96051.00
2024-01-24T04:11:30.116Z,96056.00
2024-01-24T04:12:30.231Z,96055.00
2024-01-24T04:13:30.232Z,96058.00
2024-01-24T04:15:22.005Z,96048.00
2024-01-24T04:16:22.017Z,96045.00
2024-01-24T04:17:22.010Z,96040.00
2024-01-24T04:18:22.118Z,96037.00
2024-01-24T04:19:22.145Z,96038.00
2024-01-24T04:20:22.010Z,96031.00
2024-01-24T04:21:22.071Z,96035.00
2024-01-24T04:22:22.056Z,96031.00
2024-01-24T04:23:22.008Z,96028.00
2024-01-24T04:24:22.049Z,96035.00
2024-01-24T04:25:22.012Z,96032.00
2024-01-24T04:26:22.021Z,96024.00
2024-01-24T04:27:22.735Z,96024.00
2024-01-24T04:28:22.072Z,96023.00
2024-01-24T04:29:22.024Z,96019.00
2024-01-24T04:30:22.047Z,96024.00
2024-01-24T04:31:29.756Z,96034.00
2024-01-24T04:32:29.766Z,96044.00
2024-01-24T04:33:29.866Z,96049.00
2024-01-24T04:34:29.815Z,96046.00
2024-01-24T04:35:29.751Z,96047.00
2024-01-24T04:36:29.808Z,96047.00
2024-01-24T04:37:29.787Z,96044.00
2024-01-24T04:38:29.789Z,96042.00
2024-01-24T04:39:29.778Z,96044.00
2024-01-24T04:40:29.751Z,96048.00
2024-01-24T04:41:29.752Z,96047.00
2024-01-24T04:42:29.779Z,96038.00
2024-01-24T04:43:29.754Z,96031.00
2024-01-24T04:44:29.762Z,96039.00
2024-01-24T04:45:29.802Z,96034.00
2024-01-24T04:46:29.755Z,96029.00
2024-01-24T04:47:29.833Z,96033.00
2024-01-24T04:48:29.904Z,96033.00
2024-01-24T04:49:40.105Z,96028.00
2024-01-24T04:50:30.806Z,96029.00
2024-01-24T04:51:29.779Z,96037.00
2024-01-24T04:52:29.789Z,96040.00
2024-01-24T04:53:29.792Z,96042.00
2024-01-24T04:54:29.791Z,96042.00
2024-01-24T04:55:29.767Z,96041.00
2024-01-24T04:56:29.769Z,96031.00
2024-01-24T04:57:29.846Z,96034.00
2024-01-24T04:58:29.802Z,96041.00
2024-01-24T04:59:30.326Z,96037.00
2024-01-24T05:00:29.889Z,96039.00
2024-01-24T05:01:29.856Z,96039.00
2024-01-24T05:02:29.874Z,96035.00
2024-01-24T05:03:29.939Z,96033.00
2024-01-24T05:04:29.942Z,96040.00
2024-01-24T05:05:30.057Z,96033.00
2024-01-24T05:06:30.086Z,96027.00
2024-01-24T05:07:30.097Z,96032.00
2024-01-24T05:08:30.144Z,96037.00
2024-01-24T05:09:30.155Z,96041.00
2024-01-24T05:10:30.165Z,96043.00
2024-01-24T05:11:30.220Z,96042.00
2024-01-24T05:12:30.319Z,96041.00
2024-01-24T05:13:30.336Z,96046.00
2024-01-24T05:14:30.389Z,96049.00
2024-01-24T05:15:30.393Z,96055.00
2024-01-24T05:16:30.420Z,96049.00
2024-01-24T05:17:30.537Z,96045.00
2024-01-24T05:18:30.603Z,96049.00
2024-01-24T05:19:30.708Z,96050.00
2024-01-24T05:20:30.566Z,96042.00
2024-01-24T05:21:30.606Z,96032.00
2024-01-24T05:22:30.602Z,96031.00
2024-01-24T05:23:30.660Z,96030.00
2024-01-24T05:24:30.740Z,96029.00
2024-01-24T05:25:30.737Z,96028.00
2024-01-24T05:26:30.784Z,96030.00
2024-01-24T05:27:30.906Z,96023.00
2024-01-24T05:28:30.892Z,96032.00
2024-01-24T05:29:30.958Z,96021.00
2024-01-24T05:30:35.771Z,96009.00
2024-01-24T05:31:31.993Z,96017.00
2024-01-24T05:32:31.059Z,96016.00
2024-01-24T05:33:31.169Z,96015.00
2024-01-24T05:34:31.232Z,96017.00
2024-01-24T05:35:31.027Z,96013.00
2024-01-24T05:36:31.027Z,96006.00
2024-01-24T05:37:31.024Z,96010.00
2024-01-24T05:38:31.040Z,96013.00
2024-01-24T05:39:31.095Z,96011.00
2024-01-24T05:40:30.999Z,96002.00
2024-01-24T05:41:31.034Z,96000.00
2024-01-24T05:42:31.061Z,96002.00
2024-01-24T05:43:31.073Z,96003.00
2024-01-24T05:44:31.099Z,95999.00
2024-01-24T05:45:31.137Z,96003.00
2024-01-24T05:46:31.187Z,96004.00
2024-01-24T05:47:31.275Z,96006.00
2024-01-24T05:48:31.411Z,96010.00
2024-01-24T05:49:31.401Z,96018.00
2024-01-24T05:50:31.273Z,96020.00
2024-01-24T05:51:31.446Z,96014.00
2024-01-24T05:52:31.365Z,96008.00
2024-01-24T05:53:31.434Z,96010.00
2024-01-24T05:54:31.419Z,96015.00
2024-01-24T05:55:31.458Z,96003.00
2024-01-24T05:56:31.516Z,95999.00
2024-01-24T05:57:31.610Z,95995.00
2024-01-24T05:58:31.592Z,96002.00
2024-01-24T05:59:31.680Z,95998.00
2024-01-24T06:02:01.289Z,95986.00
2024-01-24T06:03:01.296Z,95990.00
2024-01-24T06:04:01.328Z,95985.00
2024-01-24T06:05:01.328Z,95983.00
2024-01-24T06:06:01.444Z,95986.00
2024-01-24T06:07:01.347Z,95984.00
2024-01-24T06:08:01.327Z,95981.00
2024-01-24T06:09:01.306Z,95984.00
2024-01-24T06:10:01.359Z,95981.00
2024-01-24T06:11:01.280Z,95983.00
2024-01-24T06:12:01.286Z,95975.00
2024-01-24T06:13:01.293Z,95960.00
2024-01-24T06:14:01.289Z,95969.00
2024-01-24T06:15:01.270Z,95972.00
2024-01-24T06:16:01.357Z,95967.00
2024-01-24T06:17:01.311Z,95963.00
2024-01-24T06:19:01.396Z,95966.00
2024-01-24T06:20:01.322Z,95964.00
2024-01-24T06:21:01.281Z,95958.00
2024-01-24T06:22:01.289Z,95972.00
2024-01-24T06:23:01.289Z,95972.00
2024-01-24T06:24:01.313Z,95971.00
2024-01-24T06:25:01.390Z,95980.00
2024-01-24T06:26:01.317Z,95977.00
2024-01-24T06:27:01.282Z,95981.00
2024-01-24T06:28:01.308Z,95976.00
2024-01-24T06:29:01.319Z,95973.00
2024-01-24T06:30:18.118Z,95968.00
2024-01-24T06:31:02.385Z,95954.00
2024-01-24T06:32:01.298Z,95957.00
2024-01-24T06:33:01.469Z,95964.00
2024-01-24T06:34:01.391Z,95961.00
2024-01-24T06:35:01.322Z,95968.00
2024-01-24T06:36:01.357Z,95973.00
2024-01-24T06:37:01.334Z,95959.00
2024-01-24T06:38:01.955Z,95949.00
2024-01-24T06:39:01.346Z,95958.00
2024-01-24T06:40:01.329Z,95963.00
2024-01-24T06:41:01.332Z,95965.00
2024-01-24T06:42:01.321Z,95966.00
2024-01-24T06:43:01.421Z,95970.00
2024-01-24T06:44:01.346Z,95976.00
2024-01-24T06:45:01.349Z,95976.00
2024-01-24T06:46:23.846Z,95971.00
2024-01-24T06:47:01.326Z,95968.00
2024-01-24T06:48:01.525Z,95967.00
2024-01-24T06:49:01.448Z,95960.00
2024-01-24T06:50:01.359Z,95965.00
2024-01-24T06:51:01.319Z,95955.00
2024-01-24T06:52:01.375Z,95944.00
2024-01-24T06:53:01.347Z,95956.00
2024-01-24T06:54:01.365Z,95960.00
2024-01-24T06:55:01.342Z,95959.00
2024-01-24T06:56:01.423Z,95947.00
2024-01-24T06:57:01.378Z,95947.00
2024-01-24T06:58:01.434Z,95952.00
2024-01-24T06:59:01.376Z,95939.00
2024-01-24T07:00:01.430Z,95942.00
2024-01-24T07:01:01.390Z,95957.00
2024-01-24T07:02:01.344Z,95952.00
2024-01-24T07:03:01.358Z,95941.00
2024-01-24T07:04:01.418Z,95938.00
2024-01-24T07:05:01.517Z,95938.00
2024-01-24T07:06:01.403Z,95938.00
2024-01-24T07:07:01.424Z,95940.00
2024-01-24T07:08:01.369Z,95931.00
2024-01-24T07:09:01.353Z,95931.00
2024-01-24T07:10:01.404Z,95935.00
2024-01-24T07:11:01.394Z,95936.00
2024-01-24T07:12:01.355Z,95931.00
2024-01-24T07:13:01.551Z,95936.00
2024-01-24T07:14:01.368Z,95937.00
2024-01-24T07:15:01.380Z,95933.00
2024-01-24T07:16:01.422Z,95930.00
2024-01-24T07:17:01.388Z,95939.00
2024-01-24T07:18:01.487Z,95956.00
2024-01-24T07:19:01.538Z,95953.00
2024-01-24T07:20:01.457Z,95942.00
2024-01-24T07:21:01.486Z,95944.00
2024-01-24T07:22:03.941Z,95951.00
2024-01-24T07:23:01.488Z,95948.00
2024-01-24T07:24:01.491Z,95937.00
2024-01-24T07:25:01.562Z,95946.00
2024-01-24T07:26:01.512Z,95939.00
2024-01-24T07:27:01.502Z,95940.00
2024-01-24T07:28:01.524Z,95936.00
2024-01-24T07:29:01.517Z,95934.00
2024-01-24T07:30:01.491Z,95926.00
2024-01-24T07:31:01.586Z,95929.00
2024-01-24T07:32:01.569Z,95931.00
2024-01-24T07:33:01.517Z,95929.00
2024-01-24T07:34:01.638Z,95918.00
2024-01-24T07:35:01.623Z,95917.00
2024-01-24T07:36:01.468Z,95924.00
2024-01-24T07:37:01.631Z,95940.00
2024-01-24T07:38:01.536Z,95934.00
2024-01-24T07:39:01.493Z,95940.00
2024-01-24T07:40:01.514Z,95934.00
2024-01-24T07:41:01.509Z,95930.00
2024-01-24T07:42:01.510Z,95928.00
2024-01-24T07:43:02.206Z,95923.00
2024-01-24T07:44:01.544Z,95926.00
2024-01-24T07:45:01.526Z,95924.00
2024-01-24T07:46:01.601Z,95920.00
2024-01-24T07:47:01.494Z,95914.00
2024-01-24T07:48:01.581Z,95913.00
2024-01-24T07:49:01.598Z,95910.00
2024-01-24T07:50:01.700Z,95915.00
2024-01-24T07:51:01.512Z,95906.00
2024-01-24T07:52:01.524Z,95909.00
2024-01-24T07:53:01.550Z,95898.00
2024-01-24T07:54:01.531Z,95895.00
2024-01-24T07:55:01.941Z,95894.00
2024-01-24T07:56:07.339Z,95906.00
2024-01-24T07:57:02.540Z,95914.00
2024-01-24T07:58:01.646Z,95907.00
2024-01-24T07:59:01.535Z,95906.00
2024-01-24T08:00:01.577Z,95918.00
2024-01-24T08:01:01.560Z,95925.00
2024-01-24T08:02:01.588Z,95917.00
2024-01-24T08:03:01.568Z,95923.00
2024-01-24T08:04:01.635Z,95931.00
2024-01-24T08:05:03.027Z,95912.00
2024-01-24T08:06:01.605Z,95902.00
2024-01-24T08:07:01.595Z,95906.00
2024-01-24T08:08:01.554Z,95918.00
2024-01-24T08:09:01.883Z,95906.00
2024-01-24T08:10:01.614Z,95917.00
2024-01-24T08:11:01.595Z,95925.00
2024-01-24T08:12:01.534Z,95925.00
2024-01-24T08:13:01.620Z,95903.00
2024-01-24T08:14:01.594Z,95909.00
2024-01-24T08:15:01.549Z,95915.00
2024-01-24T08:16:01.672Z,95904.00
2024-01-24T08:17:01.646Z,95886.00
2024-01-24T08:18:01.725Z,95890.00
2024-01-24T08:19:01.745Z,95891.00
2024-01-24T08:20:01.839Z,95886.00
2024-01-24T08:21:02.418Z,95880.00
2024-01-24T08:22:01.784Z,95898.00
2024-01-24T08:23:01.710Z,95890.00
2024-01-24T08:24:01.772Z,95894.00
2024-01-24T08:25:01.825Z,95896.00
2024-01-24T08:26:01.828Z,95874.00
2024-01-24T08:27:01.942Z,95875.00
2024-01-24T08:28:01.966Z,95886.00
2024-01-24T08:29:01.907Z,95887.00
2024-01-24T08:30:01.938Z,95893.00
2024-01-24T08:31:02.067Z,95886.00
2024-01-24T08:32:01.954Z,95874.00
2024-01-24T08:33:02.142Z,95875.00
2024-01-24T08:34:02.170Z,95879.00
2024-01-24T08:35:02.162Z,95891.00
2024-01-24T08:36:02.097Z,95891.00
2024-01-24T08:37:02.216Z,95893.00
2024-01-24T08:38:03.027Z,95875.00
2024-01-24T08:39:02.196Z,95872.00
2024-01-24T08:40:02.254Z,95874.00
2024-01-24T08:41:02.197Z,95865.00
2024-01-24T08:42:02.303Z,95872.00
2024-01-24T08:43:02.462Z,95878.00
2024-01-24T08:44:02.254Z,95868.00
2024-01-24T08:45:02.301Z,95864.00
2024-01-24T08:46:02.323Z,95875.00
2024-01-24T08:47:02.295Z,95883.00
2024-01-24T08:48:02.429Z,95874.00
2024-01-24T08:49:02.461Z,95863.00
2024-01-24T08:50:02.506Z,95869.00
2024-01-24T08:51:02.453Z,95876.00
2024-01-24T08:52:02.462Z,95881.00
2024-01-24T08:53:02.423Z,95856.00
2024-01-24T08:54:02.593Z,95856.00
2024-01-24T08:55:02.592Z,95876.00
2024-01-24T08:56:02.481Z,95871.00
2024-01-24T08:57:02.511Z,95854.00
2024-01-24T08:58:02.601Z,95872.00
2024-01-24T08:59:02.613Z,95876.00
2024-01-24T09:00:02.651Z,95882.00
2024-01-24T09:01:02.700Z,95883.00
2024-01-24T09:02:02.744Z,95883.00
2024-01-24T09:03:02.675Z,95888.00
2024-01-24T09:04:02.863Z,95889.00
2024-01-24T09:05:02.877Z,95888.00
2024-01-24T09:06:02.927Z,95879.00
2024-01-24T09:07:02.991Z,95859.00
2024-01-24T09:08:02.909Z,95854.00
2024-01-24T09:09:02.965Z,95863.00
2024-01-24T09:10:02.982Z,95855.00
2024-01-24T09:11:02.933Z,95863.00
2024-01-24T09:12:02.949Z,95865.00
2024-01-24T09:13:03.056Z,95868.00
2024-01-24T09:14:03.041Z,95861.00
2024-01-24T09:15:03.036Z,95857.00
2024-01-24T09:16:03.114Z,95858.00
2024-01-24T09:17:03.059Z,95846.00
2024-01-24T09:18:03.310Z,95862.00
2024-01-24T09:19:03.238Z,95855.00
2024-01-24T09:20:03.469Z,95858.00
2024-01-24T09:21:03.227Z,95869.00
2024-01-24T09:22:03.722Z,95874.00
2024-01-24T09:23:04.044Z,95870.00
2024-01-24T09:24:03.310Z,95860.00
2024-01-24T09:25:06.319Z,95862.00
2024-01-24T09:26:03.310Z,95880.00
2024-01-24T09:27:03.314Z,95863.00
2024-01-24T09:28:03.353Z,95868.00
2024-01-24T09:29:03.328Z,95874.00
2024-01-24T09:30:03.347Z,95865.00
2024-01-24T09:31:03.313Z,95856.00
2024-01-24T09:32:03.306Z,95850.00
2024-01-24T09:33:03.463Z,95857.00
2024-01-24T09:34:03.620Z,95875.00
2024-01-24T09:35:03.671Z,95886.00
2024-01-24T09:36:03.357Z,95863.00
2024-01-24T09:37:03.354Z,95854.00
2024-01-24T09:38:03.349Z,95854.00
2024-01-24T09:39:03.331Z,95845.00
2024-01-24T09:40:03.422Z,95859.00
2024-01-24T09:41:03.340Z,95838.00
2024-01-24T09:42:03.323Z,95825.00
2024-01-24T09:43:03.440Z,95842.00
2024-01-24T09:44:03.333Z,95871.00
2024-01-24T09:45:04.254Z,95872.00
2024-01-24T09:46:03.377Z,95847.00
2024-01-24T09:47:03.351Z,95857.00
2024-01-24T09:48:03.419Z,95846.00
2024-01-24T09:49:03.539Z,95832.00
2024-01-24T09:50:03.573Z,95819.00
2024-01-24T09:51:03.353Z,95823.00
2024-01-24T09:52:03.429Z,95819.00
2024-01-24T09:53:03.431Z,95822.00
2024-01-24T09:54:03.414Z,95814.00
2024-01-24T09:55:03.602Z,95806.00
2024-01-24T09:56:03.512Z,95814.00
2024-01-24T09:57:03.592Z,95821.00
2024-01-24T09:58:03.635Z,95822.00
2024-01-24T09:59:03.619Z,95823.00
2024-01-24T10:00:03.641Z,95820.00
2024-01-24T10:01:03.798Z,95802.00
2024-01-24T10:02:03.723Z,95802.00
2024-01-24T10:03:03.797Z,95809.00
2024-01-24T10:04:03.921Z,95819.00
2024-01-24T10:05:03.775Z,95815.00
2024-01-24T10:06:03.849Z,95816.00
2024-01-24T10:07:04.032Z,95806.00
2024-01-24T10:08:03.917Z,95796.00
2024-01-24T10:09:06.847Z,95775.00
2024-01-24T10:10:04.056Z,95822.00
2024-01-24T10:11:03.956Z,95789.00
2024-01-24T10:12:03.963Z,95779.00
2024-01-24T10:13:04.045Z,95797.00
2024-01-24T10:14:03.964Z,95776.00
2024-01-24T10:15:03.981Z,95781.00
2024-01-24T10:16:06.971Z,95784.00
2024-01-24T10:17:04.933Z,95781.00
2024-01-24T10:18:04.048Z,95805.00
2024-01-24T10:19:04.118Z,95810.00
2024-01-24T10:20:04.118Z,95777.00
2024-01-24T10:21:03.976Z,95759.00
2024-01-24T10:22:06.583Z,95761.00
2024-01-24T10:23:03.960Z,95764.00
2024-01-24T10:24:04.006Z,95794.00
2024-01-24T10:25:04.164Z,95800.00
2024-01-24T10:26:04.022Z,95792.00
2024-01-24T10:27:03.966Z,95789.00
2024-01-24T10:28:04.067Z,95788.00
2024-01-24T10:29:04.068Z,95785.00
2024-01-24T10:30:03.991Z,95769.00
2024-01-24T10:31:04.080Z,95768.00
2024-01-24T10:32:03.971Z,95784.00
2024-01-24T10:33:04.159Z,95777.00
2024-01-24T10:34:04.030Z,95764.00
2024-01-24T10:35:04.222Z,95770.00
2024-01-24T10:36:10.577Z,95769.00
2024-01-24T10:37:05.021Z,95754.00
2024-01-24T10:38:03.978Z,95758.00
2024-01-24T10:39:03.993Z,95757.00
2024-01-24T10:40:04.094Z,95761.00
2024-01-24T10:41:04.083Z,95752.00
2024-01-24T10:42:07.587Z,95762.00
2024-01-24T10:43:05.122Z,95775.00
2024-01-24T10:44:04.023Z,95764.00
2024-01-24T10:45:04.107Z,95747.00
2024-01-24T10:46:04.070Z,95748.00
2024-01-24T10:47:04.000Z,95749.00
2024-01-24T10:48:04.045Z,95756.00
2024-01-24T10:49:04.078Z,95763.00
2024-01-24T10:50:04.139Z,95759.00
2024-01-24T10:51:04.028Z,95748.00
2024-01-24T10:52:04.061Z,95760.00
2024-01-24T10:53:04.044Z,95763.00
2024-01-24T10:54:04.002Z,95751.00
2024-01-24T10:55:04.271Z,95732.00
2024-01-24T10:56:04.080Z,95739.00
2024-01-24T10:57:04.157Z,95735.00
2024-01-24T10:58:05.843Z,95724.00
2024-01-24T10:59:04.216Z,95711.00
2024-01-24T11:00:04.594Z,95700.00
2024-01-24T11:01:04.338Z,95689.00
2024-01-24T11:02:04.338Z,95697.00
2024-01-24T11:03:04.404Z,95720.00
2024-01-24T11:04:05.845Z,95703.00
2024-01-24T11:05:04.670Z,95699.00
2024-01-24T11:06:04.593Z,95688.00
2024-01-24T11:07:04.700Z,95689.00
2024-01-24T11:08:04.665Z,95708.00
2024-01-24T11:09:04.725Z,95712.00
2024-01-24T11:10:06.941Z,95697.00
2024-01-24T11:11:04.827Z,95704.00
2024-01-24T11:12:04.768Z,95691.00
2024-01-24T11:13:04.929Z,95682.00
2024-01-24T11:14:04.769Z,95681.00
2024-01-24T11:15:05.629Z,95697.00
2024-01-24T11:16:05.927Z,95690.00
2024-01-24T11:17:04.886Z,95687.00
2024-01-24T11:18:04.792Z,95686.00
2024-01-24T11:19:04.878Z,95680.00
2024-01-24T11:20:04.925Z,95685.00
2024-01-24T11:21:04.800Z,95662.00
2024-01-24T11:22:10.475Z,95666.00
2024-01-24T11:23:05.788Z,95686.00
2024-01-24T11:24:04.819Z,95682.00
2024-01-24T11:25:04.947Z,95671.00
2024-01-24T11:26:04.807Z,95673.00
2024-01-24T11:27:04.832Z,95666.00
2024-01-24T11:28:04.946Z,95670.00
2024-01-24T11:29:04.788Z,95670.00
2024-01-24T11:30:04.795Z,95664.00
2024-01-24T11:31:04.887Z,95659.00
2024-01-24T11:32:08.276Z,95660.00
2024-01-24T11:33:06.060Z,95662.00
2024-01-24T11:34:04.884Z,95661.00
2024-01-24T11:35:05.000Z,95655.00
2024-01-24T11:36:05.076Z,95645.00
2024-01-24T11:37:05.265Z,95626.00
2024-01-24T11:38:12.939Z,95624.00
2024-01-24T11:39:05.899Z,95618.00
2024-01-24T11:40:05.065Z,95595.00
2024-01-24T11:41:05.019Z,95606.00
2024-01-24T11:42:05.145Z,95611.00
2024-01-24T11:43:05.181Z,95619.00
2024-01-24T11:44:05.121Z,95629.00
2024-01-24T11:45:05.183Z,95611.00
2024-01-24T11:46:05.358Z,95617.00
2024-01-24T11:47:05.258Z,95616.00
2024-01-24T11:48:05.373Z,95629.00